sensor_id;sensor_type;location;lat;lon;timestamp;P1;durP1;ratioP1;P2;durP2;ratioP2
13250;SDS011;6692;50.710;7.180;2023-04-10T00:01:39;8.50;;;7.70;;
13250;SDS011;6692;50.710;7.180;2023-04-10T00:03:40;8.87;;;8.07;;
13250;SDS011;6692;50.710;7.180;2023-04-10T00:05:41;9.07;;;8.23;;
13250;SDS011;6692;50.710;7.180;2023-04-10T00:07:42;9.73;;;8.93;;
13250;SDS011;6692;50.710;7.180;2023-04-10T00:09:42;9.13;;;8.33;;
13250;SDS011;6692;50.710;7.180;2023-04-10T00:11:43;9.97;;;9.17;;
13250;SDS011;6692;50.710;7.180;2023-04-10T00:13:44;9.53;;;8.63;;
13250;SDS011;6692;50.710;7.180;2023-04-10T00:15:45;9.33;;;8.53;;
13250;SDS011;6692;50.710;7.180;2023-04-10T00:17:46;9.47;;;8.67;;
13250;SDS011;6692;50.710;7.180;2023-04-10T00:19:47;8.37;;;7.67;;
13250;SDS011;6692;50.710;7.180;2023-04-10T00:21:48;8.10;;;7.40;;
13250;SDS011;6692;50.710;7.180;2023-04-10T00:23:48;7.80;;;7.10;;
13250;SDS011;6692;50.710;7.180;2023-04-10T00:25:49;8.40;;;7.70;;
13250;SDS011;6692;50.710;7.180;2023-04-10T00:27:50;8.53;;;7.73;;
13250;SDS011;6692;50.710;7.180;2023-04-10T00:29:51;8.37;;;7.57;;
13250;SDS011;6692;50.710;7.180;2023-04-10T00:31:52;7.97;;;7.27;;
13250;SDS011;6692;50.710;7.180;2023-04-10T00:33:53;8.03;;;7.33;;
13250;SDS011;6692;50.710;7.180;2023-04-10T00:35:54;8.47;;;7.77;;
13250;SDS011;6692;50.710;7.180;2023-04-10T00:37:54;8.13;;;7.33;;
13250;SDS011;6692;50.710;7.180;2023-04-10T00:39:55;8.37;;;7.67;;
13250;SDS011;6692;50.710;7.180;2023-04-10T00:41:56;8.80;;;8.00;;
13250;SDS011;6692;50.710;7.180;2023-04-10T00:43:56;8.20;;;7.50;;
13250;SDS011;6692;50.710;7.180;2023-04-10T00:45:57;8.27;;;7.47;;
13250;SDS011;6692;50.710;7.180;2023-04-10T00:47:57;9.03;;;8.23;;
13250;SDS011;6692;50.710;7.180;2023-04-10T00:49:58;9.53;;;8.83;;
13250;SDS011;6692;50.710;7.180;2023-04-10T00:51:59;8.07;;;7.40;;
13250;SDS011;6692;50.710;7.180;2023-04-10T00:54:00;9.47;;;8.67;;
13250;SDS011;6692;50.710;7.180;2023-04-10T00:56:00;9.23;;;8.43;;
13250;SDS011;6692;50.710;7.180;2023-04-10T00:58:01;7.57;;;6.87;;
13250;SDS011;6692;50.710;7.180;2023-04-10T01:00:02;8.60;;;7.90;;
13250;SDS011;6692;50.710;7.180;2023-04-10T01:02:04;8.83;;;8.03;;
13250;SDS011;6692;50.710;7.180;2023-04-10T01:04:06;7.90;;;7.27;;
13250;SDS011;6692;50.710;7.180;2023-04-10T01:06:15;8.70;;;8.00;;
13250;SDS011;6692;50.710;7.180;2023-04-10T01:08:26;8.57;;;7.80;;
13250;SDS011;6692;50.710;7.180;2023-04-10T01:12:45;7.47;;;6.83;;
13250;SDS011;6692;50.710;7.180;2023-04-10T01:14:45;7.13;;;6.53;;
13250;SDS011;6692;50.710;7.180;2023-04-10T01:16:45;7.30;;;6.63;;
13250;SDS011;6692;50.710;7.180;2023-04-10T01:18:43;7.67;;;6.90;;
13250;SDS011;6692;50.710;7.180;2023-04-10T01:20:43;7.10;;;6.50;;
13250;SDS011;6692;50.710;7.180;2023-04-10T01:25:18;7.50;;;6.80;;
13250;SDS011;6692;50.710;7.180;2023-04-10T01:27:31;6.70;;;6.10;;
13250;SDS011;6692;50.710;7.180;2023-04-10T01:29:28;6.60;;;6.00;;
13250;SDS011;6692;50.710;7.180;2023-04-10T01:31:32;7.20;;;6.50;;
13250;SDS011;6692;50.710;7.180;2023-04-10T01:33:33;7.27;;;6.57;;
13250;SDS011;6692;50.710;7.180;2023-04-10T01:35:32;7.00;;;6.33;;
13250;SDS011;6692;50.710;7.180;2023-04-10T01:37:35;7.43;;;6.80;;
13250;SDS011;6692;50.710;7.180;2023-04-10T01:39:36;7.30;;;6.70;;
13250;SDS011;6692;50.710;7.180;2023-04-10T01:41:36;7.63;;;7.03;;
13250;SDS011;6692;50.710;7.180;2023-04-10T01:43:38;6.87;;;6.27;;
13250;SDS011;6692;50.710;7.180;2023-04-10T01:45:39;7.17;;;6.47;;
13250;SDS011;6692;50.710;7.180;2023-04-10T01:47:41;7.30;;;6.63;;
13250;SDS011;6692;50.710;7.180;2023-04-10T01:49:40;7.03;;;6.43;;
13250;SDS011;6692;50.710;7.180;2023-04-10T01:51:42;7.40;;;6.80;;
13250;SDS011;6692;50.710;7.180;2023-04-10T01:53:43;7.97;;;7.30;;
13250;SDS011;6692;50.710;7.180;2023-04-10T01:55:43;7.50;;;6.80;;
13250;SDS011;6692;50.710;7.180;2023-04-10T01:57:44;7.77;;;7.10;;
13250;SDS011;6692;50.710;7.180;2023-04-10T01:59:45;7.27;;;6.67;;
13250;SDS011;6692;50.710;7.180;2023-04-10T02:01:46;7.07;;;6.47;;
13250;SDS011;6692;50.710;7.180;2023-04-10T02:03:47;7.23;;;6.63;;
13250;SDS011;6692;50.710;7.180;2023-04-10T02:05:54;7.50;;;6.80;;
13250;SDS011;6692;50.710;7.180;2023-04-10T02:07:54;7.13;;;6.47;;
13250;SDS011;6692;50.710;7.180;2023-04-10T02:09:57;6.97;;;6.37;;
13250;SDS011;6692;50.710;7.180;2023-04-10T02:12:01;6.33;;;5.83;;
13250;SDS011;6692;50.710;7.180;2023-04-10T02:14:03;7.77;;;7.07;;
13250;SDS011;6692;50.710;7.180;2023-04-10T02:16:03;6.60;;;6.00;;
13250;SDS011;6692;50.710;7.180;2023-04-10T02:18:03;9.00;;;8.20;;
13250;SDS011;6692;50.710;7.180;2023-04-10T02:20:04;7.43;;;6.77;;
13250;SDS011;6692;50.710;7.180;2023-04-10T02:22:06;7.40;;;6.70;;
13250;SDS011;6692;50.710;7.180;2023-04-10T02:24:06;7.57;;;6.87;;
13250;SDS011;6692;50.710;7.180;2023-04-10T02:26:07;7.73;;;6.93;;
13250;SDS011;6692;50.710;7.180;2023-04-10T02:28:09;7.33;;;6.63;;
13250;SDS011;6692;50.710;7.180;2023-04-10T02:30:09;7.50;;;6.73;;
13250;SDS011;6692;50.710;7.180;2023-04-10T02:32:10;7.40;;;6.70;;
13250;SDS011;6692;50.710;7.180;2023-04-10T02:34:11;7.37;;;6.67;;
13250;SDS011;6692;50.710;7.180;2023-04-10T02:36:11;7.83;;;7.03;;
13250;SDS011;6692;50.710;7.180;2023-04-10T02:38:12;7.20;;;6.50;;
13250;SDS011;6692;50.710;7.180;2023-04-10T02:40:13;6.90;;;6.30;;
13250;SDS011;6692;50.710;7.180;2023-04-10T02:42:13;7.90;;;7.10;;
13250;SDS011;6692;50.710;7.180;2023-04-10T02:44:14;7.70;;;7.00;;
13250;SDS011;6692;50.710;7.180;2023-04-10T02:46:15;8.27;;;7.47;;
13250;SDS011;6692;50.710;7.180;2023-04-10T02:48:16;6.80;;;6.20;;
13250;SDS011;6692;50.710;7.180;2023-04-10T02:50:17;8.13;;;7.33;;
13250;SDS011;6692;50.710;7.180;2023-04-10T02:52:18;8.17;;;7.40;;
13250;SDS011;6692;50.710;7.180;2023-04-10T02:54:19;7.97;;;7.17;;
13250;SDS011;6692;50.710;7.180;2023-04-10T02:56:19;8.23;;;7.43;;
13250;SDS011;6692;50.710;7.180;2023-04-10T02:58:20;8.93;;;8.03;;
13250;SDS011;6692;50.710;7.180;2023-04-10T03:00:22;8.97;;;8.07;;
13250;SDS011;6692;50.710;7.180;2023-04-10T03:02:23;9.30;;;8.40;;
13250;SDS011;6692;50.710;7.180;2023-04-10T03:04:23;10.57;;;9.57;;
13250;SDS011;6692;50.710;7.180;2023-04-10T03:06:24;9.27;;;8.27;;
13250;SDS011;6692;50.710;7.180;2023-04-10T03:08:26;10.37;;;9.33;;
13250;SDS011;6692;50.710;7.180;2023-04-10T03:10:26;9.93;;;8.93;;
13250;SDS011;6692;50.710;7.180;2023-04-10T03:12:27;11.47;;;9.83;;
13250;SDS011;6692;50.710;7.180;2023-04-10T03:14:27;10.03;;;8.83;;
13250;SDS011;6692;50.710;7.180;2023-04-10T03:16:28;10.70;;;9.60;;
13250;SDS011;6692;50.710;7.180;2023-04-10T03:18:29;9.63;;;8.63;;
13250;SDS011;6692;50.710;7.180;2023-04-10T03:20:30;10.40;;;9.30;;
13250;SDS011;6692;50.710;7.180;2023-04-10T03:22:30;9.53;;;8.53;;
13250;SDS011;6692;50.710;7.180;2023-04-10T03:24:31;10.43;;;9.17;;
13250;SDS011;6692;50.710;7.180;2023-04-10T03:26:33;10.27;;;9.27;;
13250;SDS011;6692;50.710;7.180;2023-04-10T03:28:33;10.60;;;9.50;;
13250;SDS011;6692;50.710;7.180;2023-04-10T03:30:35;10.03;;;8.80;;
13250;SDS011;6692;50.710;7.180;2023-04-10T03:32:36;10.33;;;9.27;;
13250;SDS011;6692;50.710;7.180;2023-04-10T03:34:37;9.83;;;8.83;;
13250;SDS011;6692;50.710;7.180;2023-04-10T03:36:38;9.50;;;8.60;;
13250;SDS011;6692;50.710;7.180;2023-04-10T03:38:40;10.57;;;9.13;;
13250;SDS011;6692;50.710;7.180;2023-04-10T03:40:41;10.87;;;9.17;;
13250;SDS011;6692;50.710;7.180;2023-04-10T03:42:42;10.57;;;8.33;;
13250;SDS011;6692;50.710;7.180;2023-04-10T03:44:44;9.67;;;8.23;;
13250;SDS011;6692;50.710;7.180;2023-04-10T03:46:44;9.97;;;8.97;;
13250;SDS011;6692;50.710;7.180;2023-04-10T03:48:46;9.50;;;8.23;;
13250;SDS011;6692;50.710;7.180;2023-04-10T03:50:47;8.57;;;7.67;;
13250;SDS011;6692;50.710;7.180;2023-04-10T03:52:49;9.23;;;8.30;;
13250;SDS011;6692;50.710;7.180;2023-04-10T03:54:49;9.57;;;8.27;;
13250;SDS011;6692;50.710;7.180;2023-04-10T03:56:50;9.03;;;8.13;;
13250;SDS011;6692;50.710;7.180;2023-04-10T03:58:51;8.73;;;7.83;;
13250;SDS011;6692;50.710;7.180;2023-04-10T04:00:52;8.73;;;7.83;;
13250;SDS011;6692;50.710;7.180;2023-04-10T04:02:54;9.93;;;8.93;;
13250;SDS011;6692;50.710;7.180;2023-04-10T04:04:55;9.27;;;8.13;;
13250;SDS011;6692;50.710;7.180;2023-04-10T04:06:56;9.57;;;8.50;;
13250;SDS011;6692;50.710;7.180;2023-04-10T04:08:57;8.47;;;7.60;;
13250;SDS011;6692;50.710;7.180;2023-04-10T04:10:58;8.83;;;7.97;;
13250;SDS011;6692;50.710;7.180;2023-04-10T04:12:58;8.63;;;7.73;;
13250;SDS011;6692;50.710;7.180;2023-04-10T04:15:00;8.70;;;7.80;;
13250;SDS011;6692;50.710;7.180;2023-04-10T04:17:01;8.90;;;8.00;;
13250;SDS011;6692;50.710;7.180;2023-04-10T04:19:02;8.73;;;7.83;;
13250;SDS011;6692;50.710;7.180;2023-04-10T04:21:03;10.07;;;9.03;;
13250;SDS011;6692;50.710;7.180;2023-04-10T04:23:05;9.07;;;8.17;;
13250;SDS011;6692;50.710;7.180;2023-04-10T04:25:06;9.53;;;8.17;;
13250;SDS011;6692;50.710;7.180;2023-04-10T04:27:08;10.27;;;8.90;;
13250;SDS011;6692;50.710;7.180;2023-04-10T04:29:09;8.90;;;8.00;;
13250;SDS011;6692;50.710;7.180;2023-04-10T04:31:09;10.87;;;8.10;;
13250;SDS011;6692;50.710;7.180;2023-04-10T04:33:10;9.37;;;8.23;;
13250;SDS011;6692;50.710;7.180;2023-04-10T04:35:11;8.50;;;7.60;;
13250;SDS011;6692;50.710;7.180;2023-04-10T04:37:12;10.07;;;8.47;;
13250;SDS011;6692;50.710;7.180;2023-04-10T04:39:13;9.37;;;8.37;;
13250;SDS011;6692;50.710;7.180;2023-04-10T04:41:14;8.90;;;8.00;;
13250;SDS011;6692;50.710;7.180;2023-04-10T04:43:15;10.17;;;8.30;;
13250;SDS011;6692;50.710;7.180;2023-04-10T04:45:16;8.37;;;7.47;;
13250;SDS011;6692;50.710;7.180;2023-04-10T04:47:17;8.37;;;7.50;;
13250;SDS011;6692;50.710;7.180;2023-04-10T04:49:18;9.03;;;8.13;;
13250;SDS011;6692;50.710;7.180;2023-04-10T04:51:18;9.27;;;8.07;;
13250;SDS011;6692;50.710;7.180;2023-04-10T04:53:19;8.87;;;7.97;;
13250;SDS011;6692;50.710;7.180;2023-04-10T04:55:20;9.87;;;8.60;;
13250;SDS011;6692;50.710;7.180;2023-04-10T04:57:20;9.27;;;7.63;;
13250;SDS011;6692;50.710;7.180;2023-04-10T04:59:21;8.30;;;7.50;;
13250;SDS011;6692;50.710;7.180;2023-04-10T05:01:22;9.30;;;8.33;;
13250;SDS011;6692;50.710;7.180;2023-04-10T05:03:23;9.90;;;8.90;;
13250;SDS011;6692;50.710;7.180;2023-04-10T05:05:25;8.80;;;7.90;;
13250;SDS011;6692;50.710;7.180;2023-04-10T05:07:25;10.13;;;8.73;;
13250;SDS011;6692;50.710;7.180;2023-04-10T05:09:26;10.83;;;8.20;;
13250;SDS011;6692;50.710;7.180;2023-04-10T05:11:26;11.20;;;8.17;;
13250;SDS011;6692;50.710;7.180;2023-04-10T05:13:27;8.93;;;8.03;;
13250;SDS011;6692;50.710;7.180;2023-04-10T05:15:28;8.53;;;7.60;;
13250;SDS011;6692;50.710;7.180;2023-04-10T05:17:28;9.33;;;8.30;;
13250;SDS011;6692;50.710;7.180;2023-04-10T05:19:31;9.47;;;8.47;;
13250;SDS011;6692;50.710;7.180;2023-04-10T05:21:31;9.70;;;8.57;;
13250;SDS011;6692;50.710;7.180;2023-04-10T05:23:33;10.73;;;9.50;;
13250;SDS011;6692;50.710;7.180;2023-04-10T05:25:33;11.60;;;9.23;;
13250;SDS011;6692;50.710;7.180;2023-04-10T05:27:35;10.20;;;8.93;;
13250;SDS011;6692;50.710;7.180;2023-04-10T05:29:35;10.33;;;9.13;;
13250;SDS011;6692;50.710;7.180;2023-04-10T05:31:36;9.90;;;8.83;;
13250;SDS011;6692;50.710;7.180;2023-04-10T05:33:36;15.97;;;11.77;;
13250;SDS011;6692;50.710;7.180;2023-04-10T05:35:38;13.67;;;10.63;;
13250;SDS011;6692;50.710;7.180;2023-04-10T05:37:39;11.80;;;10.50;;
13250;SDS011;6692;50.710;7.180;2023-04-10T05:39:40;12.93;;;11.53;;
13250;SDS011;6692;50.710;7.180;2023-04-10T05:41:41;12.07;;;10.77;;
13250;SDS011;6692;50.710;7.180;2023-04-10T05:43:42;13.17;;;11.53;;
13250;SDS011;6692;50.710;7.180;2023-04-10T05:45:43;15.73;;;12.90;;
13250;SDS011;6692;50.710;7.180;2023-04-10T05:47:43;15.03;;;13.00;;
13250;SDS011;6692;50.710;7.180;2023-04-10T05:49:44;15.63;;;12.70;;
13250;SDS011;6692;50.710;7.180;2023-04-10T05:51:44;14.60;;;12.30;;
13250;SDS011;6692;50.710;7.180;2023-04-10T05:53:45;14.23;;;12.43;;
13250;SDS011;6692;50.710;7.180;2023-04-10T05:55:48;15.77;;;13.53;;
13250;SDS011;6692;50.710;7.180;2023-04-10T05:57:50;16.53;;;14.10;;
13250;SDS011;6692;50.710;7.180;2023-04-10T05:59:51;15.73;;;13.83;;
13250;SDS011;6692;50.710;7.180;2023-04-10T06:01:52;15.20;;;13.07;;
13250;SDS011;6692;50.710;7.180;2023-04-10T06:03:53;15.40;;;13.77;;
13250;SDS011;6692;50.710;7.180;2023-04-10T06:05:54;16.67;;;15.00;;
13250;SDS011;6692;50.710;7.180;2023-04-10T06:07:55;16.43;;;14.70;;
13250;SDS011;6692;50.710;7.180;2023-04-10T06:09:57;15.23;;;13.73;;
13250;SDS011;6692;50.710;7.180;2023-04-10T06:11:57;15.37;;;13.80;;
13250;SDS011;6692;50.710;7.180;2023-04-10T06:13:59;16.37;;;14.67;;
13250;SDS011;6692;50.710;7.180;2023-04-10T06:15:59;17.90;;;15.00;;
13250;SDS011;6692;50.710;7.180;2023-04-10T06:18:01;16.53;;;14.73;;
13250;SDS011;6692;50.710;7.180;2023-04-10T06:20:02;14.97;;;13.10;;
13250;SDS011;6692;50.710;7.180;2023-04-10T06:22:02;16.43;;;14.73;;
13250;SDS011;6692;50.710;7.180;2023-04-10T06:24:03;17.73;;;13.90;;
13250;SDS011;6692;50.710;7.180;2023-04-10T06:26:04;15.87;;;14.20;;
13250;SDS011;6692;50.710;7.180;2023-04-10T06:28:05;15.13;;;13.57;;
13250;SDS011;6692;50.710;7.180;2023-04-10T06:30:06;15.63;;;14.07;;
13250;SDS011;6692;50.710;7.180;2023-04-10T06:32:09;15.50;;;13.90;;
13250;SDS011;6692;50.710;7.180;2023-04-10T06:34:09;16.23;;;14.60;;
13250;SDS011;6692;50.710;7.180;2023-04-10T06:36:11;15.07;;;13.53;;
13250;SDS011;6692;50.710;7.180;2023-04-10T06:38:11;17.27;;;15.47;;
13250;SDS011;6692;50.710;7.180;2023-04-10T06:40:13;15.83;;;14.13;;
13250;SDS011;6692;50.710;7.180;2023-04-10T06:42:14;16.03;;;14.43;;
13250;SDS011;6692;50.710;7.180;2023-04-10T06:44:15;16.57;;;14.93;;
13250;SDS011;6692;50.710;7.180;2023-04-10T06:46:16;17.10;;;15.50;;
13250;SDS011;6692;50.710;7.180;2023-04-10T06:48:17;16.77;;;15.13;;
13250;SDS011;6692;50.710;7.180;2023-04-10T06:50:18;16.60;;;15.03;;
13250;SDS011;6692;50.710;7.180;2023-04-10T06:52:19;16.17;;;14.57;;
13250;SDS011;6692;50.710;7.180;2023-04-10T06:54:20;16.17;;;14.57;;
13250;SDS011;6692;50.710;7.180;2023-04-10T06:56:20;16.67;;;15.03;;
13250;SDS011;6692;50.710;7.180;2023-04-10T06:58:22;17.37;;;15.77;;
13250;SDS011;6692;50.710;7.180;2023-04-10T07:00:23;17.97;;;16.10;;
13250;SDS011;6692;50.710;7.180;2023-04-10T07:02:24;17.57;;;15.87;;
13250;SDS011;6692;50.710;7.180;2023-04-10T07:04:25;18.20;;;16.50;;
13250;SDS011;6692;50.710;7.180;2023-04-10T07:06:26;18.87;;;17.17;;
13250;SDS011;6692;50.710;7.180;2023-04-10T07:08:27;21.53;;;19.67;;
13250;SDS011;6692;50.710;7.180;2023-04-10T07:10:28;20.87;;;19.20;;
13250;SDS011;6692;50.710;7.180;2023-04-10T07:12:30;20.50;;;18.80;;
13250;SDS011;6692;50.710;7.180;2023-04-10T07:14:31;17.00;;;15.50;;
13250;SDS011;6692;50.710;7.180;2023-04-10T07:16:32;17.17;;;15.73;;
13250;SDS011;6692;50.710;7.180;2023-04-10T07:18:33;20.57;;;18.97;;
13250;SDS011;6692;50.710;7.180;2023-04-10T07:20:33;24.20;;;22.30;;
13250;SDS011;6692;50.710;7.180;2023-04-10T07:22:35;18.97;;;17.27;;
13250;SDS011;6692;50.710;7.180;2023-04-10T07:24:35;21.43;;;19.80;;
13250;SDS011;6692;50.710;7.180;2023-04-10T07:26:37;22.53;;;20.70;;
13250;SDS011;6692;50.710;7.180;2023-04-10T07:28:37;22.87;;;21.07;;
13250;SDS011;6692;50.710;7.180;2023-04-10T07:30:39;25.23;;;23.23;;
13250;SDS011;6692;50.710;7.180;2023-04-10T07:32:40;22.43;;;20.53;;
13250;SDS011;6692;50.710;7.180;2023-04-10T07:34:41;19.53;;;17.80;;
13250;SDS011;6692;50.710;7.180;2023-04-10T07:36:41;24.03;;;22.10;;
13250;SDS011;6692;50.710;7.180;2023-04-10T07:38:43;32.70;;;30.47;;
13250;SDS011;6692;50.710;7.180;2023-04-10T07:40:44;29.37;;;27.33;;
13250;SDS011;6692;50.710;7.180;2023-04-10T07:42:46;35.97;;;33.90;;
13250;SDS011;6692;50.710;7.180;2023-04-10T07:44:46;23.33;;;21.50;;
13250;SDS011;6692;50.710;7.180;2023-04-10T07:46:48;34.23;;;32.03;;
13250;SDS011;6692;50.710;7.180;2023-04-10T07:48:48;42.10;;;39.60;;
13250;SDS011;6692;50.710;7.180;2023-04-10T07:50:50;47.90;;;45.20;;
13250;SDS011;6692;50.710;7.180;2023-04-10T07:52:50;41.50;;;39.20;;
13250;SDS011;6692;50.710;7.180;2023-04-10T07:54:52;45.57;;;43.10;;
13250;SDS011;6692;50.710;7.180;2023-04-10T07:56:53;35.23;;;33.03;;
13250;SDS011;6692;50.710;7.180;2023-04-10T07:58:54;33.03;;;31.03;;
13250;SDS011;6692;50.710;7.180;2023-04-10T08:00:55;31.30;;;29.20;;
13250;SDS011;6692;50.710;7.180;2023-04-10T08:02:56;38.20;;;36.10;;
13250;SDS011;6692;50.710;7.180;2023-04-10T08:04:57;31.10;;;29.00;;
13250;SDS011;6692;50.710;7.180;2023-04-10T08:06:58;43.30;;;40.90;;
13250;SDS011;6692;50.710;7.180;2023-04-10T08:08:59;44.10;;;41.73;;
13250;SDS011;6692;50.710;7.180;2023-04-10T08:11:01;54.27;;;51.57;;
13250;SDS011;6692;50.710;7.180;2023-04-10T08:13:01;35.60;;;33.67;;
13250;SDS011;6692;50.710;7.180;2023-04-10T08:15:03;24.43;;;22.67;;
13250;SDS011;6692;50.710;7.180;2023-04-10T08:17:04;29.27;;;27.50;;
13250;SDS011;6692;50.710;7.180;2023-04-10T08:19:05;20.80;;;19.30;;
13250;SDS011;6692;50.710;7.180;2023-04-10T08:21:06;47.37;;;44.97;;
13250;SDS011;6692;50.710;7.180;2023-04-10T08:23:07;40.87;;;38.60;;
13250;SDS011;6692;50.710;7.180;2023-04-10T08:25:07;27.70;;;25.97;;
13250;SDS011;6692;50.710;7.180;2023-04-10T08:27:09;48.37;;;45.97;;
13250;SDS011;6692;50.710;7.180;2023-04-10T08:29:09;58.53;;;55.67;;
13250;SDS011;6692;50.710;7.180;2023-04-10T08:31:11;56.67;;;53.83;;
13250;SDS011;6692;50.710;7.180;2023-04-10T08:33:11;36.70;;;34.63;;
13250;SDS011;6692;50.710;7.180;2023-04-10T08:35:13;33.83;;;31.63;;
13250;SDS011;6692;50.710;7.180;2023-04-10T08:37:13;43.47;;;41.07;;
13250;SDS011;6692;50.710;7.180;2023-04-10T08:39:15;51.33;;;48.73;;
13250;SDS011;6692;50.710;7.180;2023-04-10T08:41:17;50.60;;;48.03;;
13250;SDS011;6692;50.710;7.180;2023-04-10T08:43:17;44.73;;;42.33;;
13250;SDS011;6692;50.710;7.180;2023-04-10T08:45:19;46.33;;;43.97;;
13250;SDS011;6692;50.710;7.180;2023-04-10T08:47:20;64.57;;;61.50;;
13250;SDS011;6692;50.710;7.180;2023-04-10T08:49:23;52.60;;;49.97;;
13250;SDS011;6692;50.710;7.180;2023-04-10T08:51:24;45.37;;;42.97;;
13250;SDS011;6692;50.710;7.180;2023-04-10T08:53:23;31.43;;;29.57;;
13250;SDS011;6692;50.710;7.180;2023-04-10T08:55:24;52.90;;;50.27;;
13250;SDS011;6692;50.710;7.180;2023-04-10T08:57:25;37.60;;;35.50;;
13250;SDS011;6692;50.710;7.180;2023-04-10T08:59:27;61.77;;;58.87;;
13250;SDS011;6692;50.710;7.180;2023-04-10T09:01:27;68.17;;;65.03;;
13250;SDS011;6692;50.710;7.180;2023-04-10T09:03:27;31.53;;;29.73;;
13250;SDS011;6692;50.710;7.180;2023-04-10T09:05:28;47.83;;;45.53;;
13250;SDS011;6692;50.710;7.180;2023-04-10T09:07:30;52.27;;;49.67;;
13250;SDS011;6692;50.710;7.180;2023-04-10T09:09:30;83.30;;;79.70;;
13250;SDS011;6692;50.710;7.180;2023-04-10T09:13:42;62.70;;;59.83;;
13250;SDS011;6692;50.710;7.180;2023-04-10T09:17:57;67.73;;;64.63;;
13250;SDS011;6692;50.710;7.180;2023-04-10T09:19:56;106.23;;;101.93;;
13250;SDS011;6692;50.710;7.180;2023-04-10T09:21:57;62.40;;;59.67;;
13250;SDS011;6692;50.710;7.180;2023-04-10T09:23:59;92.80;;;88.93;;
13250;SDS011;6692;50.710;7.180;2023-04-10T09:26:00;87.00;;;83.33;;
13250;SDS011;6692;50.710;7.180;2023-04-10T09:28:02;97.53;;;93.43;;
13250;SDS011;6692;50.710;7.180;2023-04-10T09:30:03;124.33;;;119.43;;
13250;SDS011;6692;50.710;7.180;2023-04-10T09:32:05;128.70;;;123.63;;
13250;SDS011;6692;50.710;7.180;2023-04-10T09:34:06;126.97;;;122.03;;
13250;SDS011;6692;50.710;7.180;2023-04-10T09:36:12;94.93;;;91.13;;
13250;SDS011;6692;50.710;7.180;2023-04-10T09:38:13;53.10;;;50.53;;
13250;SDS011;6692;50.710;7.180;2023-04-10T09:40:20;59.17;;;56.53;;
13250;SDS011;6692;50.710;7.180;2023-04-10T09:44:30;28.80;;;27.20;;
13250;SDS011;6692;50.710;7.180;2023-04-10T09:46:31;91.73;;;87.93;;
13250;SDS011;6692;50.710;7.180;2023-04-10T09:48:32;78.77;;;75.50;;
13250;SDS011;6692;50.710;7.180;2023-04-10T09:50:34;62.63;;;60.03;;
13250;SDS011;6692;50.710;7.180;2023-04-10T09:52:35;58.93;;;56.43;;
13250;SDS011;6692;50.710;7.180;2023-04-10T09:54:36;99.60;;;95.70;;
13250;SDS011;6692;50.710;7.180;2023-04-10T09:56:37;47.47;;;45.37;;
13250;SDS011;6692;50.710;7.180;2023-04-10T09:58:38;24.33;;;23.13;;
13250;SDS011;6692;50.710;7.180;2023-04-10T10:00:42;28.50;;;27.10;;
13250;SDS011;6692;50.710;7.180;2023-04-10T10:02:42;109.10;;;104.87;;
13250;SDS011;6692;50.710;7.180;2023-04-10T10:04:44;125.90;;;121.17;;
13250;SDS011;6692;50.710;7.180;2023-04-10T10:06:44;67.07;;;64.30;;
13250;SDS011;6692;50.710;7.180;2023-04-10T10:08:45;135.83;;;130.77;;
13250;SDS011;6692;50.710;7.180;2023-04-10T10:10:47;42.37;;;40.50;;
13250;SDS011;6692;50.710;7.180;2023-04-10T10:12:49;120.50;;;116.03;;
13250;SDS011;6692;50.710;7.180;2023-04-10T10:15:06;54.93;;;52.57;;
13250;SDS011;6692;50.710;7.180;2023-04-10T10:17:23;50.07;;;47.87;;
13250;SDS011;6692;50.710;7.180;2023-04-10T10:19:26;118.17;;;113.63;;
13250;SDS011;6692;50.710;7.180;2023-04-10T10:21:27;98.00;;;94.20;;
13250;SDS011;6692;50.710;7.180;2023-04-10T10:23:27;109.40;;;105.23;;
13250;SDS011;6692;50.710;7.180;2023-04-10T10:25:28;84.13;;;80.77;;
13250;SDS011;6692;50.710;7.180;2023-04-10T10:27:29;78.30;;;75.20;;
13250;SDS011;6692;50.710;7.180;2023-04-10T10:29:31;30.97;;;29.47;;
13250;SDS011;6692;50.710;7.180;2023-04-10T10:31:32;101.63;;;97.70;;
13250;SDS011;6692;50.710;7.180;2023-04-10T10:33:35;96.70;;;93.00;;
13250;SDS011;6692;50.710;7.180;2023-04-10T10:35:35;41.23;;;39.50;;
13250;SDS011;6692;50.710;7.180;2023-04-10T10:37:36;63.30;;;60.50;;
13250;SDS011;6692;50.710;7.180;2023-04-10T10:41:58;116.70;;;112.27;;
13250;SDS011;6692;50.710;7.180;2023-04-10T10:44:00;49.73;;;47.57;;
13250;SDS011;6692;50.710;7.180;2023-04-10T10:46:02;67.33;;;64.60;;
13250;SDS011;6692;50.710;7.180;2023-04-10T10:48:05;129.23;;;124.50;;
13250;SDS011;6692;50.710;7.180;2023-04-10T10:50:05;83.83;;;80.47;;
13250;SDS011;6692;50.710;7.180;2023-04-10T10:52:06;76.53;;;73.47;;
13250;SDS011;6692;50.710;7.180;2023-04-10T10:58:52;36.27;;;34.60;;
13250;SDS011;6692;50.710;7.180;2023-04-10T11:08:12;53.97;;;51.80;;
13250;SDS011;6692;50.710;7.180;2023-04-10T11:09:56;48.50;;;46.53;;
13250;SDS011;6692;50.710;7.180;2023-04-10T11:11:57;47.60;;;45.57;;
13250;SDS011;6692;50.710;7.180;2023-04-10T11:14:12;91.40;;;87.90;;
13250;SDS011;6692;50.710;7.180;2023-04-10T11:16:13;50.77;;;48.67;;
13250;SDS011;6692;50.710;7.180;2023-04-10T11:18:13;104.23;;;100.33;;
13250;SDS011;6692;50.710;7.180;2023-04-10T11:20:14;72.40;;;69.63;;
13250;SDS011;6692;50.710;7.180;2023-04-10T11:22:15;58.83;;;56.40;;
13250;SDS011;6692;50.710;7.180;2023-04-10T11:24:16;46.07;;;44.17;;
13250;SDS011;6692;50.710;7.180;2023-04-10T11:28:34;67.43;;;64.70;;
13250;SDS011;6692;50.710;7.180;2023-04-10T11:30:34;45.97;;;44.07;;
13250;SDS011;6692;50.710;7.180;2023-04-10T11:32:42;58.53;;;56.23;;
13250;SDS011;6692;50.710;7.180;2023-04-10T11:34:43;88.93;;;85.63;;
13250;SDS011;6692;50.710;7.180;2023-04-10T11:36:44;56.87;;;54.63;;
13250;SDS011;6692;50.710;7.180;2023-04-10T11:38:52;66.17;;;63.60;;
13250;SDS011;6692;50.710;7.180;2023-04-10T11:40:55;75.87;;;72.97;;
13250;SDS011;6692;50.710;7.180;2023-04-10T11:43:10;64.50;;;62.00;;
13250;SDS011;6692;50.710;7.180;2023-04-10T11:44:56;49.00;;;47.03;;
13250;SDS011;6692;50.710;7.180;2023-04-10T11:46:57;43.70;;;41.87;;
13250;SDS011;6692;50.710;7.180;2023-04-10T11:48:58;89.80;;;86.50;;
13250;SDS011;6692;50.710;7.180;2023-04-10T11:50:58;59.33;;;57.00;;
13250;SDS011;6692;50.710;7.180;2023-04-10T11:52:59;66.40;;;63.80;;
13250;SDS011;6692;50.710;7.180;2023-04-10T11:54:59;56.10;;;53.67;;
13250;SDS011;6692;50.710;7.180;2023-04-10T11:57:03;44.90;;;43.10;;
13250;SDS011;6692;50.710;7.180;2023-04-10T11:59:03;62.67;;;59.97;;
13250;SDS011;6692;50.710;7.180;2023-04-10T12:01:07;93.53;;;90.07;;
13250;SDS011;6692;50.710;7.180;2023-04-10T12:03:07;17.93;;;17.03;;
13250;SDS011;6692;50.710;7.180;2023-04-10T12:05:08;69.10;;;66.50;;
13250;SDS011;6692;50.710;7.180;2023-04-10T12:07:10;42.73;;;40.97;;
13250;SDS011;6692;50.710;7.180;2023-04-10T12:09:13;44.23;;;42.33;;
13250;SDS011;6692;50.710;7.180;2023-04-10T12:11:13;56.13;;;53.93;;
13250;SDS011;6692;50.710;7.180;2023-04-10T12:15:25;45.03;;;43.27;;
13250;SDS011;6692;50.710;7.180;2023-04-10T12:17:27;50.87;;;48.87;;
13250;SDS011;6692;50.710;7.180;2023-04-10T12:19:28;30.87;;;29.60;;
13250;SDS011;6692;50.710;7.180;2023-04-10T12:21:29;89.67;;;86.40;;
13250;SDS011;6692;50.710;7.180;2023-04-10T12:23:30;44.03;;;42.27;;
13250;SDS011;6692;50.710;7.180;2023-04-10T12:25:31;35.57;;;34.13;;
13250;SDS011;6692;50.710;7.180;2023-04-10T12:27:31;54.77;;;52.67;;
13250;SDS011;6692;50.710;7.180;2023-04-10T12:29:32;27.87;;;26.77;;
13250;SDS011;6692;50.710;7.180;2023-04-10T12:31:34;61.37;;;59.03;;
13250;SDS011;6692;50.710;7.180;2023-04-10T12:33:33;34.60;;;33.20;;
13250;SDS011;6692;50.710;7.180;2023-04-10T12:35:37;31.37;;;30.00;;
13250;SDS011;6692;50.710;7.180;2023-04-10T12:40:03;43.13;;;41.37;;
13250;SDS011;6692;50.710;7.180;2023-04-10T12:42:09;55.77;;;53.60;;